EW0186 Weather Reports


Display with metric or nautical units.
time (UTC)temp
F
wind
direction
speed
MPH
gust
MPH
rain 1hr
in
rain 24hr
in
rain mn
in
humidity
%
barometer
mb
20220627155110 71 139 1.0 3.0 0.20 0.30 0.30 3 1012.0
20220627154610 71 146 1.0 5.0 0.27 0.30 0.30 3 1012.0
20220627154110 71 159 1.0 5.0 0.27 0.30 0.30 3 1012.0
20220627153610 71 212 1.0 5.0 0.28 0.30 0.30 3 1012.0
20220627153110 71 189 0.0 3.0 0.28 0.30 0.30 3 1011.9
20220627152610 71 196 0.0 5.0 0.28 0.30 0.30 3 1011.9
20220627152110 71 285 2.0 5.0 0.30 0.30 0.30 3 1011.9
20220627151610 71 307 0.0 5.0 0.30 0.30 0.30 5 1011.9
20220627151110 71 318 1.0 5.0 0.30 0.30 0.30 8 1011.8
20220627150610 71 163 1.0 7.0 0.29 0.29 0.29 12 1011.8
20220627150110 71 223 2.0 8.0 0.26 0.26 0.26 19 1011.7
20220627145610 71 178 2.0 8.0 0.20 0.20 0.20 26 1011.8
20220627145111 72 211 1.0 5.0 0.10 0.10 0.10 33 1011.8
20220627144610 72 197 0.0 7.0 0.03 0.03 0.03 40 1011.7
20220627144110 73 147 1.0 7.0 0.03 0.03 0.03 46 1011.7
20220627143609 73 151 1.0 6.0 0.02 0.02 0.02 54 1011.8
20220627143110 74 78 0.0 8.0 0.02 0.02 0.02 60 1011.7
20220627142610 74 201 1.0 8.0 0.02 0.02 0.02 65 1011.7
20220627142110 74 229 2.0 8.0 0.00 0.00 0.00 67 1011.6
20220627141613 74 188 1.0 8.0 0.00 0.00 0.00 67 1011.7
20220627141110 74 191 3.0 7.0 0.00 0.00 0.00 68 1011.7
20220627140610 74 137 1.0 6.0 0.00 0.00 0.00 67 1011.8
20220627140110 74 163 2.0 8.0 0.00 0.00 0.00 68 1011.8
20220627135610 74 174 3.0 12.0 0.00 0.00 0.00 69 1011.8
20220627135110 74 160 3.0 12.0 0.00 0.00 0.00 70 1011.8
20220627134610 74 170 2.0 10.0 0.00 0.00 0.00 70 1011.7
20220627134110 74 200 3.0 9.0 0.00 0.00 0.00 70 1011.7
20220627133610 74 144 3.0 7.0 0.00 0.00 0.00 70 1011.7
20220627133110 74 195 3.0 10.0 0.00 0.00 0.00 70 1011.8
20220627132610 74 147 2.0 10.0 0.00 0.00 0.00 70 1011.8
20220627132110 74 192 2.0 8.0 0.00 0.00 0.00 70 1011.7
20220627131610 73 147 3.0 10.0 0.00 0.00 0.00 71 1011.7
20220627131110 73 160 3.0 10.0 0.00 0.00 0.00 71 1011.7
20220627130609 73 208 1.0 10.0 0.00 0.00 0.00 70 1011.6
20220627130109 73 64 1.0 10.0 0.00 0.00 0.00 71 1011.5
20220627125610 73 185 2.0 9.0 0.00 0.00 0.00 71 1011.5
20220627125109 74 192 2.0 7.0 0.00 0.00 0.00 71 1011.6
20220627124609 74 219 0.0 7.0 0.00 0.00 0.00 71 1011.6
20220627124110 74 58 2.0 8.0 0.00 0.00 0.00 71 1011.5
20220627123610 73 203 3.0 12.0 0.00 0.00 0.00 71 1011.4
20220627123110 73 129 2.0 12.0 0.00 0.00 0.00 71 1011.8
20220627122609 73 51 2.0 12.0 0.00 0.00 0.00 71 1011.8
20220627122110 73 180 2.0 8.0 0.00 0.00 0.00 71 1011.8
20220627121610 73 136 3.0 9.0 0.00 0.00 0.00 71 1011.8
20220627121110 73 133 2.0 12.0 0.00 0.00 0.00 70 1011.8
20220627120610 73 202 2.0 12.0 0.00 0.00 0.00 71 1011.8
20220627120111 73 149 2.0 9.0 0.00 0.00 0.00 70 1011.8
20220627115610 72 242 2.0 9.0 0.00 0.00 0.00 70 1011.8
20220627115110 72 232 4.0 7.0 0.00 0.00 0.00 71 1011.9
20220627114609 72 214 3.0 6.0 0.00 0.00 0.00 70 1011.9
20220627114110 72 150 2.0 8.0 0.00 0.00 0.00 70 1011.8
20220627113610 72 214 2.0 8.0 0.00 0.00 0.00 71 1011.8
20220627113110 72 230 1.0 7.0 0.00 0.00 0.00 71 1011.8
20220627112610 72 161 1.0 7.0 0.00 0.00 0.00 71 1011.7
20220627112110 72 260 0.0 6.0 0.00 0.00 0.00 71 1012.0
20220627111610 71 209 1.0 6.0 0.00 0.00 0.00 71 1012.0
20220627111110 71 202 2.0 6.0 0.00 0.00 0.00 71 1012.0
20220627110610 71 184 1.0 12.0 0.00 0.00 0.00 71 1011.8
20220627110110 71 164 2.0 12.0 0.00 0.00 0.00 71 1011.7
20220627105610 71 216 1.0 8.0 0.00 0.00 0.00 71 1012.0
20220627105109 71 175 2.0 9.0 0.00 0.00 0.00 71 1012.1
20220627104610 71 42 2.0 9.0 0.00 0.00 0.00 71 1012.1
20220627104110 71 177 1.0 8.0 0.00 0.00 0.00 71 1012.1
20220627103610 71 205 1.0 8.0 0.00 0.00 0.00 71 1012.1
20220627103110 71 169 1.0 7.0 0.00 0.00 0.00 71 1012.0
20220627102610 70 214 1.0 7.0 0.00 0.00 0.00 71 1012.1
20220627102110 70 183 3.0 7.0 0.00 0.00 0.00 71 1012.1
20220627101610 70 180 0.0 5.0 0.00 0.00 0.00 70 1012.3
20220627101110 70 204 1.0 6.0 0.00 0.00 0.00 70 1012.3
20220627095609 70 212 1.0 8.0 0.00 0.00 0.00 70 1012.3
20220627095110 70 121 2.0 8.0 0.00 0.00 0.00 70 1012.3
20220627094610 70 209 1.0 8.0 0.00 0.00 0.00 70 1012.3
20220627094110 70 164 2.0 8.0 0.00 0.00 0.00 70 1012.4
20220627093610 70 206 1.0 5.0 0.00 0.00 0.00 70 1012.4
20220627093110 70 5 2.0 5.0 0.00 0.00 0.00 70 1012.6
20220627092610 69 102 1.0 7.0 0.00 0.00 0.00 70 1012.6
20220627092109 69 72 1.0 7.0 0.00 0.00 0.00 71 1012.6
20220627091609 69 155 1.0 8.0 0.00 0.00 0.00 71 1012.6
20220627091109 69 78 1.0 8.0 0.00 0.00 0.00 71 1012.6
20220627090610 69 215 2.0 5.0 0.00 0.00 0.00 71 1012.6
20220627090109 69 192 0.0 7.0 0.00 0.00 0.00 71 1012.7
20220627085609 69 140 2.0 7.0 0.00 0.00 0.00 71 1012.7
20220627085110 69 115 1.0 6.0 0.00 0.00 0.00 71 1012.8
20220627084610 69 219 2.0 6.0 0.00 0.00 0.00 71 1012.8
20220627084109 69 205 2.0 6.0 0.00 0.00 0.00 71 1012.8
20220627083609 69 244 1.0 3.0 0.00 0.00 0.00 71 1012.9
20220627083109 69 156 1.0 3.0 0.00 0.00 0.00 72 1012.9
20220627082611 70 258 1.0 5.0 0.00 0.00 0.00 72 1012.9
20220627082109 70 190 0.0 5.0 0.00 0.00 0.00 71 1012.9
20220627081610 70 205 2.0 5.0 0.00 0.00 0.00 71 1013.0
20220627081109 70 103 0.0 5.0 0.00 0.00 0.00 71 1013.1
20220627080610 70 140 0.0 5.0 0.00 0.00 0.00 71 1013.1
20220627080110 70 134 2.0 5.0 0.00 0.00 0.00 71 1013.1
20220627075609 70 275 1.0 5.0 0.00 0.00 0.00 71 1013.2
20220627075109 70 161 1.0 5.0 0.00 0.00 0.00 71 1013.5
20220627074610 70 183 0.0 3.0 0.00 0.00 0.00 71 1013.5
20220627074110 70 215 1.0 6.0 0.00 0.00 0.00 70 1013.5
20220627073610 70 159 1.0 6.0 0.00 0.00 0.00 70 1013.5
20220627073110 70 142 2.0 5.0 0.00 0.00 0.00 70 1013.5
20220627072609 70 56 1.0 5.0 0.00 0.00 0.00 70 1013.5
20220627072109 70 292 2.0 5.0 0.00 0.00 0.00 69 1013.6
20220627071609 70 137 0.0 5.0 0.00 0.00 0.00 69 1013.7
20220627071109 70 137 1.0 5.0 0.00 0.00 0.00 69 1013.8
20220627070610 70 146 1.0 3.0 0.00 0.00 0.00 68 1013.8
20220627070109 71 144 0.0 3.0 0.00 0.00 0.00 68 1014.0
20220627065609 71 222 0.0 3.0 0.00 0.00 0.00 68 1014.1
20220627065109 71 250 1.0 5.0 0.00 0.00 0.00 67 1014.1
20220627064609 71 178 1.0 6.0 0.00 0.00 0.00 67 1014.1
20220627064109 71 355 0.0 6.0 0.00 0.00 0.00 67 1014.1
20220627063609 71 145 0.0 6.0 0.00 0.00 0.00 66 1014.1
20220627063110 71 210 2.0 6.0 0.00 0.00 0.00 66 1014.1
20220627062609 71 179 1.0 3.0 0.00 0.00 0.00 66 1014.2
20220627062110 71 180 1.0 3.0 0.00 0.00 0.00 65 1014.2
20220627061609 71 140 1.0 3.0 0.00 0.00 0.00 65 1014.2
20220627061110 71 335 1.0 5.0 0.00 0.00 0.00 65 1014.3
20220627060609 71 171 1.0 5.0 0.00 0.00 0.00 64 1014.4
20220627060109 71 221 0.0 5.0 0.00 0.00 0.00 64 1014.3
20220627055609 71 276 2.0 5.0 0.00 0.00 0.00 65 1014.3
20220627055109 71 163 1.0 6.0 0.00 0.00 0.00 64 1014.5
20220627054609 71 210 2.0 6.0 0.00 0.00 0.00 64 1014.5
20220627054109 71 182 2.0 5.0 0.00 0.00 0.00 64 1014.5
20220627053609 71 210 1.0 6.0 0.00 0.00 0.00 64 1014.5
20220627053110 71 124 0.0 6.0 0.00 0.00 0.00 64 1014.6
20220627052609 71 250 1.0 6.0 0.00 0.00 0.00 64 1014.6
20220627052110 71 219 0.0 8.0 0.00 0.00 0.00 64 1014.6
20220627051609 72 219 2.0 9.0 0.00 0.00 0.00 64 1014.6
20220627051110 72 163 0.0 9.0 0.00 0.00 0.00 64 1014.6
20220627050609 71 275 2.0 9.0 0.00 0.00 0.00 63 1014.6
20220627050110 71 226 2.0 3.0 0.00 0.00 0.00 64 1014.7
20220627045610 72 90 0.0 8.0 0.00 0.00 0.00 64 1014.7
20220627045109 72 193 2.0 8.0 0.00 0.00 0.00 64 1014.8
20220627044609 72 183 0.0 2.0 0.00 0.00 0.00 64 1014.8
20220627044109 72 182 0.0 2.0 0.00 0.00 0.00 63 1014.9
20220627043609 72 183 0.0 3.0 0.00 0.00 0.00 63 1014.9
20220627043109 72 184 0.0 3.0 0.00 0.00 0.00 63 1014.9
20220627042609 73 184 1.0 6.0 0.00 0.00 0.00 63 1014.9
20220627042110 73 240 1.0 6.0 0.00 0.00 0.00 63 1015.0
20220627041610 73 203 1.0 6.0 0.00 0.00 0.00 63 1015.2
20220627041110 73 166 0.0 6.0 0.00 0.00 0.00 63 1015.2
20220627040609 73 212 2.0 6.0 0.00 0.00 0.00 63 1015.2
20220627040109 73 140 1.0 6.0 0.00 0.00 0.00 64 1015.2
20220627035609 73 252 1.0 6.0 0.00 0.00 0.00 64 1015.3
20220627035109 73 5 2.0 5.0 0.00 0.00 0.00 65 1015.3
20220627034610 73 98 0.0 2.0 0.00 0.00 0.00 65 1015.3
20220627034109 73 143 0.0 2.0 0.00 0.00 0.00 66 1015.3
20220627033609 73 143 1.0 2.0 0.00 0.00 0.00 66 1015.4
20220627033109 74 158 0.0 3.0 0.00 0.00 0.00 66 1015.4
20220627032610 74 82 0.0 3.0 0.00 0.00 0.00 67 1015.4
20220627032109 74 224 1.0 7.0 0.00 0.00 0.00 67 1015.3
20220627031609 74 347 1.0 7.0 0.00 0.00 0.00 68 1015.3
20220627031109 74 182 1.0 7.0 0.00 0.00 0.00 68 1015.3
20220627030609 74 198 0.0 3.0 0.00 0.00 0.00 68 1015.3
20220627030109 74 94 1.0 7.0 0.00 0.00 0.00 68 1015.3
20220627025609 74 139 1.0 7.0 0.00 0.00 0.00 69 1015.4
20220627025109 75 176 0.0 6.0 0.00 0.00 0.00 69 1015.3
20220627024609 75 177 1.0 6.0 0.00 0.00 0.00 69 1015.3
20220627024109 75 208 1.0 5.0 0.00 0.00 0.00 70 1015.4
20220627023609 75 35 0.0 2.0 0.00 0.00 0.00 70 1015.5
20220627023109 75 36 0.0 2.0 0.00 0.00 0.00 70 1015.5
20220627022609 75 36 0.0 2.0 0.00 0.00 0.00 70 1015.6
20220627022109 75 246 0.0 3.0 0.00 0.00 0.00 70 1015.6
20220627021609 76 249 1.0 3.0 0.00 0.00 0.00 70 1015.7
20220627021109 76 150 0.0 3.0 0.00 0.00 0.00 70 1015.7
20220627020609 76 113 0.0 3.0 0.00 0.00 0.00 70 1015.7
20220627020110 76 113 1.0 3.0 0.00 0.00 0.00 70 1015.7
20220627015609 76 215 1.0 5.0 0.00 0.00 0.00 70 1015.7
20220627015109 76 186 2.0 5.0 0.00 0.00 0.00 70 1015.7
20220627014610 76 196 0.0 5.0 0.00 0.00 0.00 70 1015.6
20220627014109 76 188 1.0 5.0 0.00 0.00 0.00 70 1015.5
20220627013609 76 189 0.0 3.0 0.00 0.00 0.00 70 1015.5
20220627013109 76 205 1.0 5.0 0.00 0.00 0.00 70 1015.5
20220627012609 77 202 1.0 5.0 0.00 0.00 0.00 69 1015.2
20220627012109 77 233 0.0 3.0 0.00 0.00 0.00 69 1015.2
20220627011609 77 155 0.0 3.0 0.00 0.00 0.00 69 1015.2
20220627011110 77 155 1.0 3.0 0.00 0.00 0.00 68 1015.2
20220627010609 78 150 0.0 3.0 0.00 0.00 0.00 68 1015.2
20220627010110 78 150 0.0 3.0 0.00 0.00 0.00 67 1015.1
20220627005618 78 190 1.0 3.0 0.00 0.00 0.00 67 1015.1
20220627005109 78 164 1.0 3.0 0.00 0.00 0.00 66 1015.0
20220627004609 78 135 0.0 0.0 0.00 0.00 0.00 65 1014.9
20220627004109 79 135 0.0 3.0 0.00 0.00 0.00 65 1014.9
20220627003609 79 135 1.0 3.0 0.00 0.00 0.00 64 1014.9
20220627003109 79 136 0.0 3.0 0.00 0.00 0.00 64 1014.9
20220627002609 79 136 1.0 3.0 0.00 0.00 0.00 63 1014.9
20220627002109 80 147 2.0 3.0 0.00 0.00 0.00 62 1014.9
20220627001609 80 204 1.0 5.0 0.00 0.00 0.00 62 1014.9
20220627001109 80 146 0.0 5.0 0.00 0.00 0.00 61 1014.8
20220627000609 81 180 1.0 5.0 0.00 0.00 0.00 60 1014.8
20220627000109 81 172 1.0 3.0 0.00 0.00 0.00 60 1014.8
20220626235609 81 175 1.0 7.0 0.00 0.00 0.00 60 1014.8
20220626235109 81 178 1.0 7.0 0.00 0.00 0.00 59 1014.8
20220626234609 82 171 1.0 7.0 0.00 0.00 0.00 59 1014.8
20220626234109 82 135 3.0 7.0 0.00 0.00 0.00 58 1014.8
20220626233609 82 154 0.0 7.0 0.00 0.00 0.00 58 1014.7
20220626233110 83 175 1.0 7.0 0.00 0.00 0.00 58 1014.7
20220626232609 83 153 2.0 7.0 0.00 0.00 0.00 57 1014.7
20220626232110 83 113 2.0 7.0 0.00 0.00 0.00 56 1014.6
20220626231609 84 152 3.0 7.0 0.00 0.00 0.00 56 1014.6
20220626231110 84 144 2.0 13.0 0.00 0.00 0.00 56 1014.6
20220626230609 84 172 3.0 13.0 0.00 0.00 0.00 55 1014.6
20220626230109 84 230 3.0 8.0 0.00 0.00 0.00 54 1014.4
20220626225608 85 187 2.0 7.0 0.00 0.00 0.00 55 1014.4
20220626225108 85 208 1.0 8.0 0.00 0.00 0.00 54 1014.4
20220626224609 85 217 2.0 8.0 0.00 0.00 0.00 54 1014.3
20220626224109 86 151 3.0 7.0 0.00 0.00 0.00 55 1014.3
20220626223609 86 219 3.0 9.0 0.00 0.00 0.00 54 1014.3
20220626223109 86 146 2.0 9.0 0.00 0.00 0.00 54 1014.3
20220626222609 87 192 4.0 9.0 0.00 0.00 0.00 53 1014.3
20220626222110 87 146 3.0 9.0 0.00 0.00 0.00 53 1014.3
20220626221609 87 201 2.0 12.0 0.00 0.00 0.00 53 1014.3
20220626221109 88 161 4.0 12.0 0.00 0.00 0.00 52 1014.4
20220626220609 88 93 3.0 9.0 0.00 0.00 0.00 51 1014.4
20220626220109 88 177 3.0 10.0 0.00 0.00 0.00 50 1014.4
20220626215609 88 188 2.0 15.0 0.00 0.00 0.00 50 1014.3
20220626215109 89 164 6.0 15.0 0.00 0.00 0.00 48 1014.3
20220626214609 90 143 3.0 9.0 0.00 0.00 0.00 48 1014.3
20220626214109 90 158 1.0 10.0 0.00 0.00 0.00 48 1014.3
20220626213609 91 176 2.0 10.0 0.00 0.00 0.00 47 1014.4
20220626213108 91 132 1.0 7.0 0.00 0.00 0.00 46 1014.4
20220626212609 91 214 3.0 7.0 0.00 0.00 0.00 45 1014.4
20220626212109 91 164 2.0 8.0 0.00 0.00 0.00 44 1014.4
20220626211609 92 146 2.0 8.0 0.00 0.00 0.00 42 1014.5
20220626211109 92 232 2.0 7.0 0.00 0.00 0.00 40 1014.5
20220626210609 92 194 2.0 7.0 0.00 0.00 0.00 41 1014.5
20220626210108 92 186 1.0 5.0 0.00 0.00 0.00 41 1014.6
20220626205609 92 177 2.0 6.0 0.00 0.00 0.00 41 1014.8
20220626205109 92 196 1.0 8.0 0.00 0.00 0.00 41 1014.8
20220626204609 92 217 2.0 8.0 0.00 0.00 0.00 42 1014.8
20220626204109 91 142 1.0 5.0 0.00 0.00 0.00 42 1014.9
20220626203609 91 155 1.0 10.0 0.00 0.00 0.00 42 1014.9
20220626203109 91 148 3.0 10.0 0.00 0.00 0.00 41 1014.9
20220626202609 92 180 3.0 10.0 0.00 0.00 0.00 40 1014.9
20220626202109 92 116 2.0 8.0 0.00 0.00 0.00 40 1014.9
20220626201609 92 72 1.0 8.0 0.00 0.00 0.00 40 1014.9
20220626201109 92 147 2.0 8.0 0.00 0.00 0.00 40 1015.0
20220626200610 92 226 2.0 5.0 0.00 0.00 0.00 40 1015.0
20220626200109 91 159 1.0 6.0 0.00 0.00 0.00 42 1015.0
20220626195609 91 181 2.0 6.0 0.00 0.00 0.00 41 1015.0
20220626195109 92 201 2.0 6.0 0.00 0.00 0.00 41 1015.1
20220626194609 92 172 1.0 5.0 0.00 0.00 0.00 40 1015.1
20220626194109 92 187 1.0 5.0 0.00 0.00 0.00 40 1015.2
20220626193609 92 220 1.0 5.0 0.00 0.00 0.00 40 1015.2
20220626193109 92 220 2.0 5.0 0.00 0.00 0.00 38 1015.3
20220626192609 92 175 1.0 6.0 0.00 0.00 0.00 40 1015.4
20220626192109 92 160 2.0 6.0 0.00 0.00 0.00 40 1015.5
20220626191609 92 161 1.0 3.0 0.00 0.00 0.00 40 1015.6
20220626191109 92 151 2.0 8.0 0.00 0.00 0.00 39 1015.6
20220626190609 92 167 2.0 8.0 0.00 0.00 0.00 39 1015.7
20220626190109 92 165 2.0 7.0 0.00 0.00 0.00 39 1015.7
20220626185609 93 177 3.0 7.0 0.00 0.00 0.00 38 1015.7
20220626185109 93 201 3.0 7.0 0.00 0.00 0.00 38 1015.7
20220626184609 93 319 1.0 7.0 0.00 0.00 0.00 36 1015.7
20220626184109 93 197 0.0 6.0 0.00 0.00 0.00 36 1015.8
20220626183609 93 112 2.0 6.0 0.00 0.00 0.00 37 1015.9
20220626183109 93 76 1.0 8.0 0.00 0.00 0.00 38 1015.9
20220626182608 92 113 2.0 8.0 0.00 0.00 0.00 38 1015.9
20220626182109 92 133 2.0 7.0 0.00 0.00 0.00 38 1015.9
20220626181609 93 186 3.0 7.0 0.00 0.00 0.00 38 1015.9
20220626181109 93 161 1.0 3.0 0.00 0.00 0.00 37 1015.9
20220626180609 92 226 1.0 6.0 0.00 0.00 0.00 38 1016.1
20220626180109 92 116 1.0 6.0 0.00 0.00 0.00 38 1016.1
20220626175609 91 209 3.0 7.0 0.00 0.00 0.00 38 1016.2
20220626175109 91 202 3.0 7.0 0.00 0.00 0.00 39 1016.3
20220626174609 91 199 2.0 7.0 0.00 0.00 0.00 40 1016.3
20220626174109 92 199 1.0 7.0 0.00 0.00 0.00 39 1016.4
20220626173609 92 217 2.0 7.0 0.00 0.00 0.00 40 1016.5
20220626173109 92 50 1.0 6.0 0.00 0.00 0.00 41 1016.5
20220626172609 92 245 2.0 6.0 0.00 0.00 0.00 40 1016.6
20220626172109 91 83 2.0 6.0 0.00 0.00 0.00 39 1016.7
20220626171609 91 224 2.0 6.0 0.00 0.00 0.00 40 1016.7
20220626171109 91 139 2.0 6.0 0.00 0.00 0.00 39 1016.8
20220626170608 91 205 2.0 6.0 0.00 0.00 0.00 41 1016.9
20220626170109 90 229 3.0 6.0 0.00 0.00 0.00 42 1016.9
20220626165609 90 2 1.0 6.0 0.00 0.00 0.00 44 1017.0
20220626165109 90 122 2.0 8.0 0.00 0.00 0.00 43 1017.0
20220626164609 89 148 2.0 8.0 0.00 0.00 0.00 44 1017.0
20220626164109 89 254 2.0 7.0 0.00 0.00 0.00 44 1017.0
20220626163608 90 266 2.0 7.0 0.00 0.00 0.00 45 1017.1
20220626163108 89 63 1.0 7.0 0.00 0.00 0.00 45 1017.1
20220626162609 89 108 1.0 7.0 0.00 0.00 0.00 44 1017.2
20220626162108 90 185 2.0 7.0 0.00 0.00 0.00 46 1017.5
20220626161608 89 267 1.0 5.0 0.00 0.00 0.00 45 1017.5
20220626161109 90 58 3.0 7.0 0.00 0.00 0.00 42 1017.5
20220626160609 89 120 2.0 7.0 0.00 0.00 0.00 43 1017.6
20220626160108 89 131 2.0 7.0 0.00 0.00 0.00 43 1017.6
20220626155608 89 189 2.0 7.0 0.00 0.00 0.00 44 1017.6